New Danville, Pennsylvania
Current Conditions -  °F | °C
As of 10:05 PM on Sunday 23 Nov 2014 (Local Time) from KLNS Reporting Station
Overcast Overcast  
Wind Chill: 45°   Ceiling: 2800
Heat Index: 48°   Visibility: 10mi
Dew Point: 41°   Wind: 7mph
Humidity: 77%   Direction: 90°E
Pressure: 29.95"   Gusts: NA
Location:  40.0115°N, 76.3553°W
Report Text: KLNS 240305Z 09006KT 10SM FEW022 BKN028 OVC037 09/05 A2995 RMK AO2 T00890050
Loading
Personal Weather Stations






























Interactive Weather Map New forecast layout! Learn more

10-Day Weather Forecast

Advertisements
Track Severe Weather on mobile